Map

Track Data

SID SEASON NUMBER BASIN SUBBASIN NAME ISO_TIME NATURE LAT LON WMO_WIND WMO_PRES WMO_AGENCY TRACK_TYPE DIST2LAND LANDFALL IFLAG USA_AGENCY USA_ATCF_ID USA_LAT USA_LON USA_RECORD USA_STATUS USA_WIND USA_PRES USA_SSHS USA_R34_NE USA_R34_SE USA_R34_SW USA_R34_NW USA_R50_NE USA_R50_SE USA_R50_SW USA_R50_NW USA_R64_NE USA_R64_SE USA_R64_SW USA_R64_NW USA_POCI USA_ROCI USA_RMW USA_EYE TOKYO_LAT TOKYO_LON TOKYO_GRADE TOKYO_WIND TOKYO_PRES TOKYO_R50_DIR TOKYO_R50_LONG TOKYO_R50_SHORT TOKYO_R30_DIR TOKYO_R30_LONG TOKYO_R30_SHORT TOKYO_LAND CMA_LAT CMA_LON CMA_CAT CMA_WIND CMA_PRES HKO_LAT HKO_LON HKO_CAT HKO_WIND HKO_PRES NEWDELHI_LAT NEWDELHI_LON NEWDELHI_GRADE NEWDELHI_WIND NEWDELHI_PRES NEWDELHI_CI NEWDELHI_DP NEWDELHI_POCI REUNION_LAT REUNION_LON REUNION_TYPE REUNION_WIND REUNION_PRES REUNION_TNUM REUNION_CI REUNION_RMW REUNION_R34_NE REUNION_R34_SE REUNION_R34_SW REUNION_R34_NW REUNION_R50_NE REUNION_R50_SE REUNION_R50_SW REUNION_R50_NW REUNION_R64_NE REUNION_R64_SE REUNION_R64_SW REUNION_R64_NW BOM_LAT BOM_LON BOM_TYPE BOM_WIND BOM_PRES BOM_TNUM BOM_CI BOM_RMW BOM_R34_NE BOM_R34_SE BOM_R34_SW BOM_R34_NW BOM_R50_NE BOM_R50_SE BOM_R50_SW BOM_R50_NW BOM_R64_NE BOM_R64_SE BOM_R64_SW BOM_R64_NW BOM_ROCI BOM_POCI BOM_EYE BOM_POS_METHOD BOM_PRES_METHOD NADI_LAT NADI_LON NADI_CAT NADI_WIND NADI_PRES WELLINGTON_LAT WELLINGTON_LON WELLINGTON_WIND WELLINGTON_PRES DS824_LAT DS824_LON DS824_STAGE DS824_WIND DS824_PRES TD9636_LAT TD9636_LON TD9636_STAGE TD9636_WIND TD9636_PRES TD9635_LAT TD9635_LON TD9635_WIND TD9635_PRES TD9635_ROCI NEUMANN_LAT NEUMANN_LON NEUMANN_CLASS NEUMANN_WIND NEUMANN_PRES MLC_LAT MLC_LON MLC_CLASS MLC_WIND MLC_PRES USA_GUST BOM_GUST BOM_GUST_PER REUNION_GUST REUNION_GUST_PER USA_SEAHGT USA_SEARAD_NE USA_SEARAD_SE USA_SEARAD_SW USA_SEARAD_NW STORM_SPEED STORM_DIR
1953060S13162 1953 13 SP MM NOT_NAMED 1953-03-01 00:00:00 TS -13.0000 161.500 main 248 248 O________OO___ jtwc_sh SH141953 -13.0000 161.500 -1 -13.0000 161.500 TC -13.0000 161.500 2 5 171
1953060S13162 1953 13 SP MM NOT_NAMED 1953-03-01 03:00:00 TS -13.2559 161.549 main 281 280 P________PP___ SH141953 -13.2550 161.550 -1 -13.2550 161.550 TC -13.2578 161.547 2 5 169
1953060S13162 1953 13 SP MM NOT_NAMED 1953-03-01 06:00:00 TS -13.5008 161.598 main 303 303 O________OP___ jtwc_sh SH141953 -13.5000 161.600 -1 -13.5000 161.600 TC -13.5025 161.595 2 5 168
1953060S13162 1953 13 SP MM NOT_NAMED 1953-03-01 09:00:00 TS -13.7220 161.649 main 325 324 P________PP___ SH141953 -13.7225 161.650 -1 -13.7225 161.650 TC -13.7210 161.646 2 4 166
1953060S13162 1953 13 SP MM NOT_NAMED 1953-03-01 12:00:00 TS -13.9000 161.700 main 347 347 O________OO___ jtwc_sh SH141953 -13.9000 161.700 -1 -13.9000 161.700 TC -13.9000 161.700 2 3 162
1953060S13162 1953 13 SP MM NOT_NAMED 1953-03-01 15:00:00 TS -14.0206 161.748 main 358 358 P________PP___ SH141953 -14.0150 161.743 -1 -14.0150 161.743 TC -14.0318 161.760 2 2 154
1953060S13162 1953 13 SP MM NOT_NAMED 1953-03-01 18:00:00 TS -14.1100 161.809 main 369 369 O________OP___ jtwc_sh SH141953 -14.1000 161.800 -1 -14.1000 161.800 TC -14.1300 161.828 2 2 142
1953060S13162 1953 13 SP MM NOT_NAMED 1953-03-01 21:00:00 TS -14.1994 161.897 main 380 380 P________PP___ SH141953 -14.1925 161.893 -1 -14.1925 161.893 TC -14.2131 161.907 2 3 136
1953060S13162 1953 13 SP MM NOT_NAMED 1953-03-02 00:00:00 TS -14.3000 162.000 main 391 391 O________OO___ jtwc_sh SH141953 -14.3000 162.000 -1 -14.3000 162.000 TC -14.3000 162.000 2 3 141
1953060S13162 1953 13 SP MM NOT_NAMED 1953-03-02 03:00:00 TS -14.4406 162.100 main 403 403 P________PP___ SH141953 -14.4500 162.093 -1 -14.4500 162.093 TC -14.4219 162.115 2 4 144
1953060S13162 1953 13 SP MM NOT_NAMED 1953-03-02 06:00:00 TS -14.5833 162.214 main 425 425 O________OP___ jtwc_sh SH141953 -14.6000 162.200 -1 -14.6000 162.200 TC -14.5500 162.242 2 4 136
1953060S13162 1953 13 SP MM NOT_NAMED 1953-03-02 09:00:00 TS -14.6977 162.358 main 436 430 P________PP___ SH141953 -14.7075 162.350 -1 -14.7075 162.350 TC -14.6782 162.374 2 4 128
1953060S13162 1953 13 SP MM NOT_NAMED 1953-03-02 12:00:00 TS -14.8000 162.500 main 430 419 O________OO___ jtwc_sh SH141953 -14.8000 162.500 -1 -14.8000 162.500 TC -14.8000 162.500 2 3 131
1953060S13162 1953 13 SP MM NOT_NAMED 1953-03-02 15:00:00 TS -14.8969 162.594 main 419 409 P________PP___ SH141953 -14.9000 162.608 -1 -14.9000 162.608 TC -14.8907 162.567 2 3 138
1953060S13162 1953 13 SP MM NOT_NAMED 1953-03-02 18:00:00 TS -14.9924 162.678 main 409 399 O________OP___ jtwc_sh SH141953 -15.0000 162.700 -1 -15.0000 162.700 TC -14.9771 162.633 2 2 140
1953060S13162 1953 13 SP MM NOT_NAMED 1953-03-02 21:00:00 TS -15.0866 162.758 main 399 389 P________PP___ SH141953 -15.0924 162.770 -1 -15.0924 162.770 TC -15.0750 162.733 2 3 134
1953060S13162 1953 13 SP MM NOT_NAMED 1953-03-03 00:00:00 TS -15.2000 162.900 main 389 358 O________OO___ jtwc_sh SH141953 -15.2000 162.900 -1 -15.2000 162.900 TC -15.2000 162.900 2 5 122
1953060S13162 1953 13 SP MM NOT_NAMED 1953-03-03 03:00:00 TS -15.3395 163.169 main 358 331 P________PP___ SH141953 -15.3275 163.155 -1 -15.3275 163.155 TC -15.3636 163.198 2 7 118
1953060S13162 1953 13 SP MM NOT_NAMED 1953-03-03 06:00:00 TS -15.5185 163.521 main 331 291 O________OP___ jtwc_sh SH141953 -15.5000 163.500 -1 -15.5000 163.500 TC -15.5556 163.562 2 8 119
1953060S13162 1953 13 SP MM NOT_NAMED 1953-03-03 09:00:00 TS -15.7467 163.920 main 291 255 P________PP___ SH141953 -15.7351 163.907 -1 -15.7351 163.907 TC -15.7698 163.945 2 9 123
1953060S13162 1953 13 SP MM NOT_NAMED 1953-03-03 12:00:00 TS -16.0000 164.300 main 255 232 O________OO___ jtwc_sh SH141953 -16.0000 164.300 -1 -16.0000 164.300 TC -16.0000 164.300 2 8 128
1953060S13162 1953 13 SP MM NOT_NAMED 1953-03-03 15:00:00 TS -16.2478 164.582 main 232 222 P________PP___ SH141953 -16.2499 164.580 -1 -16.2499 164.580 TC -16.2436 164.585 2 7 135
1953060S13162 1953 13 SP MM NOT_NAMED 1953-03-03 18:00:00 TS -16.4999 164.811 main 228 222 O________OP___ jtwc_sh SH141953 -16.5000 164.800 -1 -16.5000 164.800 TC -16.4998 164.832 2 7 140
1953060S13162 1953 13 SP MM NOT_NAMED 1953-03-03 21:00:00 TS -16.7570 165.028 main 228 217 P________PP___ SH141953 -16.7575 165.023 -1 -16.7575 165.023 TC -16.7562 165.038 2 6 143
1953060S13162 1953 13 SP MM NOT_NAMED 1953-03-04 00:00:00 TS -17.0000 165.200 main 224 222 O________OO___ jtwc_sh SH141953 -17.0000 165.200 -1 -17.0000 165.200 TC -17.0000 165.200 2 5 148
1953060S13162 1953 13 SP MM NOT_NAMED 1953-03-04 03:00:00 TS -17.2084 165.324 main 227 225 P________PP___ SH141953 -17.2075 165.323 -1 -17.2075 165.323 TC -17.2102 165.327 2 4 155
1953060S13162 1953 13 SP MM NOT_NAMED 1953-03-04 06:00:00 TS -17.4024 165.403 main 232 231 O________OP___ jtwc_sh SH141953 -17.4000 165.400 -1 -17.4000 165.400 TC -17.4073 165.410 2 4 160
1953060S13162 1953 13 SP MM NOT_NAMED 1953-03-04 09:00:00 TS -17.5953 165.465 main 236 236 P________PP___ SH141953 -17.5925 165.465 -1 -17.5925 165.465 TC -17.6008 165.464 2 4 167
1953060S13162 1953 13 SP MM NOT_NAMED 1953-03-04 12:00:00 TS -17.8000 165.500 main 248 248 O________OO___ jtwc_sh SH141953 -17.8000 165.500 -1 -17.8000 165.500 TC -17.8000 165.500 2 5 176
1953060S13162 1953 13 SP MM NOT_NAMED 1953-03-04 15:00:00 TS -18.0433 165.509 main 262 247 P________PP___ SH141953 -18.0500 165.500 -1 -18.0500 165.500 TC -18.0300 165.527 2 5 0
1953060S13162 1953 13 SP MM NOT_NAMED 1953-03-04 18:00:00 TS -18.2883 165.514 main 247 227 O________OP___ jtwc_sh SH141953 -18.3000 165.500 -1 -18.3000 165.500 TC -18.2649 165.543 2 5 174
1953060S13162 1953 13 SP MM NOT_NAMED 1953-03-04 21:00:00 TS -18.5075 165.544 main 227 212 P________PP___ SH141953 -18.5150 165.535 -1 -18.5150 165.535 TC -18.4925 165.562 2 4 169
1953060S13162 1953 13 SP MM NOT_NAMED 1953-03-05 00:00:00 TS -18.7000 165.600 main 212 200 O________OO___ jtwc_sh SH141953 -18.7000 165.600 -1 -18.7000 165.600 TC -18.7000 165.600 2 4 159
1953060S13162 1953 13 SP MM NOT_NAMED 1953-03-05 03:00:00 TS -18.8608 165.686 main 200 199 P________PP___ SH141953 -18.8575 165.693 -1 -18.8575 165.693 TC -18.8675 165.674 2 4 150
1953060S13162 1953 13 SP MM NOT_NAMED 1953-03-05 06:00:00 TS -19.0050 165.790 main 199 191 O________OP___ jtwc_sh SH141953 -19.0000 165.800 -1 -19.0000 165.800 TC -19.0150 165.770 2 4 146
1953060S13162 1953 13 SP MM NOT_NAMED 1953-03-05 09:00:00 TS -19.1517 165.894 main 191 187 P________PP___ SH141953 -19.1500 165.900 -1 -19.1500 165.900 TC -19.1550 165.881 2 4 146
1953060S13162 1953 13 SP MM NOT_NAMED 1953-03-05 12:00:00 TS -19.3000 166.000 main 187 177 O________OO___ jtwc_sh SH141953 -19.3000 166.000 -1 -19.3000 166.000 TC -19.3000 166.000 2 3 149
1953060S13162 1953 13 SP MM NOT_NAMED 1953-03-05 15:00:00 TS -19.4399 166.082 main 182 170 P________PP___ SH141953 -19.4425 166.093 -1 -19.4425 166.093 TC -19.4348 166.062 2 3 150
1953060S13162 1953 13 SP MM NOT_NAMED 1953-03-05 18:00:00 TS -19.5939 166.180 main 170 160 O________OP___ jtwc_sh SH141953 -19.6000 166.200 -1 -19.6000 166.200 TC -19.5816 166.139 2 4 148
1953060S13162 1953 13 SP MM NOT_NAMED 1953-03-05 21:00:00 TS -19.7675 166.299 main 160 160 P________PP___ SH141953 -19.7699 166.313 -1 -19.7699 166.313 TC -19.7627 166.272 2 5 144
1953060S13162 1953 13 SP MM NOT_NAMED 1953-03-06 00:00:00 TS -20.0000 166.500 main 160 147 O________OO___ jtwc_sh SH141953 -20.0000 166.500 -1 -20.0000 166.500 TC -20.0000 166.500 2 7 140
1953060S13162 1953 13 SP MM NOT_NAMED 1953-03-06 03:00:00 TS -20.3298 166.802 main 152 137 P________PP___ SH141953 -20.3198 166.783 -1 -20.3198 166.783 TC -20.3498 166.841 2 10 136
1953060S13162 1953 13 SP MM NOT_NAMED 1953-03-06 06:00:00 TS -20.7165 167.228 main 139 136 O________OP___ jtwc_sh SH141953 -20.7000 167.200 -1 -20.7000 167.200 TC -20.7496 167.283 2 12 131
1953060S13162 1953 13 SP MM NOT_NAMED 1953-03-06 09:00:00 TS -21.1316 167.778 main 145 137 P________PP___ SH141953 -21.1226 167.762 -1 -21.1226 167.762 TC -21.1495 167.810 2 13 126
1953060S13162 1953 13 SP MM NOT_NAMED 1953-03-06 12:00:00 TS -21.5000 168.400 main 164 164 O________OO___ jtwc_sh SH141953 -21.5000 168.400 -1 -21.5000 168.400 TC -21.5000 168.400 2 13 118
1953060S13162 1953 13 SP MM NOT_NAMED 1953-03-06 15:00:00 TS -21.7294 168.970 main 213 210 P________PP___ SH141953 -21.7370 168.978 -1 -21.7370 168.978 TC -21.7143 168.955 2 12 110
1953060S13162 1953 13 SP MM NOT_NAMED 1953-03-06 18:00:00 TS -21.8922 169.591 main 269 269 O________OP___ jtwc_sh SH141953 -21.9000 169.600 -1 -21.9000 169.600 TC -21.8766 169.574 2 13 104
1953060S13162 1953 13 SP MM NOT_NAMED 1953-03-06 21:00:00 TS -22.0315 170.287 main 340 340 P________PP___ SH141953 -22.0344 170.291 -1 -22.0344 170.291 TC -22.0258 170.281 2 14 102
1953060S13162 1953 13 SP MM NOT_NAMED 1953-03-07 00:00:00 TS -22.2000 171.100 main 421 421 O________OO___ jtwc_sh SH141953 -22.2000 171.100 -1 -22.2000 171.100 TC -22.2000 171.100 2 17 106
1953060S13162 1953 13 SP MM NOT_NAMED 1953-03-07 03:00:00 TS -22.4854 172.040 main 514 514 P________PP___ SH141953 -22.4846 172.040 -1 -22.4846 172.040 TC -22.4871 172.041 2 19 108
1953060S13162 1953 13 SP MM NOT_NAMED 1953-03-07 06:00:00 TS -22.7983 173.099 main 628 628 O________OP___ jtwc_sh SH141953 -22.8000 173.100 -1 -22.8000 173.100 TC -22.7950 173.097 2 21 106
1953060S13162 1953 13 SP MM NOT_NAMED 1953-03-07 09:00:00 TS -23.0798 174.228 main 645 614 P________PP___ SH141953 -23.0796 174.227 -1 -23.0796 174.227 TC -23.0802 174.229 2 22 103
1953060S13162 1953 13 SP MM NOT_NAMED 1953-03-07 12:00:00 TS -23.3000 175.400 main 614 588 O________OO___ jtwc_sh SH141953 -23.3000 175.400 -1 -23.3000 175.400 TC -23.3000 175.400 2 22 99
1953060S13162 1953 13 SP MM NOT_NAMED 1953-03-07 15:00:00 TS -23.4373 176.554 main 586 581 P________PP___ SH141953 -23.4440 176.543 -1 -23.4440 176.543 TC -23.4239 176.577 2 21 95
1953060S13162 1953 13 SP MM NOT_NAMED 1953-03-07 18:00:00 TS -23.4885 177.718 main 581 581 O________OP___ jtwc_sh SH141953 -23.5000 177.700 -1 -23.5000 177.700 TC -23.4655 177.753 2 22 91
1953060S13162 1953 13 SP MM NOT_NAMED 1953-03-07 21:00:00 TS -23.4661 178.903 main 586 581 P________PP___ SH141953 -23.4745 178.890 -1 -23.4745 178.890 TC -23.4494 178.928 2 22 88
1953060S13162 1953 13 SP MM NOT_NAMED 1953-03-08 00:00:00 TS -23.4000 180.100 main 603 O________OO___ jtwc_sh SH141953 -23.4000 -179.900 -1 -23.4000 180.100 TC -23.4000 -179.900 2 22 87

Digital Typhoon Data and Search

About IBTrACS Database

This database is a web-friendly format of International Best Track Archive for Climate Stewardship (IBTrACS), a global best track data archive curated by NOAA dating back to 1842.

Updated: 2021-10-08